createdAt,value
2023-01-21T09:06:03.913Z,24.03
2023-01-21T09:11:02.282Z,23.50
2023-01-21T09:15:55.794Z,35.27
2023-01-21T09:20:50.137Z,27.33
2023-01-21T09:25:45.364Z,24.27
2023-01-21T09:30:39.107Z,41.50
2023-01-21T09:35:32.766Z,32.27
2023-01-21T09:40:26.547Z,22.33
2023-01-21T09:45:23.025Z,21.20
2023-01-21T09:50:21.727Z,28.30
2023-01-21T09:55:18.692Z,31.23
2023-01-21T10:00:32.444Z,26.70
2023-01-21T10:06:06.198Z,31.03
2023-01-21T10:11:12.340Z,22.33
2023-01-21T10:16:15.484Z,32.03
2023-01-21T10:21:17.139Z,31.33
2023-01-21T10:26:14.783Z,28.43
2023-01-21T10:31:22.812Z,20.83
2023-01-21T10:36:47.974Z,19.10
2023-01-21T10:41:55.941Z,22.00
2023-01-21T10:46:56.398Z,20.27
2023-01-21T10:51:57.461Z,26.43
2023-01-21T10:57:02.420Z,30.63
2023-01-21T11:02:19.371Z,20.80
2023-01-21T11:07:23.025Z,10.37
2023-01-21T11:12:24.950Z,6.80
2023-01-21T11:17:35.608Z,6.93
2023-01-21T11:22:32.937Z,3.10
2023-01-21T11:27:34.450Z,2.87
2023-01-21T11:32:35.870Z,3.00
2023-01-21T11:37:32.003Z,3.43
2023-01-21T11:42:26.059Z,2.50
2023-01-21T11:47:33.953Z,2.37
2023-01-21T11:52:29.902Z,2.20
2023-01-21T11:57:29.957Z,2.40
2023-01-21T12:02:27.297Z,3.13
2023-01-21T12:07:25.864Z,3.33
2023-01-21T12:12:41.748Z,4.20
2023-01-21T12:17:51.182Z,4.43
2023-01-21T12:23:00.703Z,5.20
2023-01-21T12:28:11.367Z,2.53
2023-01-21T12:33:15.172Z,3.17
2023-01-21T12:38:19.603Z,3.13
2023-01-21T12:43:19.910Z,7.20
2023-01-21T12:48:20.035Z,3.73
2023-01-21T12:53:37.465Z,4.83
2023-01-21T12:58:34.173Z,2.67
2023-01-21T13:03:34.330Z,3.07
2023-01-21T13:08:47.445Z,4.17
2023-01-21T13:13:47.120Z,4.40
2023-01-21T13:18:44.490Z,4.90
2023-01-21T13:23:46.916Z,3.90
2023-01-21T13:28:47.467Z,4.17
2023-01-21T13:33:54.835Z,7.07
2023-01-21T13:39:00.355Z,6.80
2023-01-21T13:44:21.690Z,10.53
2023-01-21T13:49:55.885Z,10.17
2023-01-21T13:55:15.911Z,7.47
2023-01-21T14:00:16.987Z,9.43
2023-01-21T14:05:18.340Z,3.77
2023-01-21T14:10:19.772Z,6.43
2023-01-21T14:15:32.821Z,7.80
2023-01-21T14:21:09.063Z,5.63
2023-01-21T14:26:15.080Z,5.40
2023-01-21T14:31:13.654Z,4.03
